CheckWX is a tool to help pilots better visualize weather data.  It is not intended as a substitute for an official pre-flight weather briefing.

06:07:54 UTC

KPOV METAR
Portage County Airport
Ravenna, Ohio, USA
Current

13 mins ago

KPOV 230555Z AUTO 00000KT 10SM CLR 12/06 A3007 RMK AO2 T01160055 PWINO
Observed
Apr-23 @ 05:55 UTC
Visibility
10 SM
Flight Rules
VFR
Cloud Levels
  • Clear skies
Temperature
12°C / 54°F
Dewpoint
C / 43°F
Humidity
67%
Altimeter
30.07" Hg
Pressure
1018.32 hPa
Previous

33 mins ago

KPOV 230535Z AUTO 00000KT 10SM CLR 12/06 A3007 RMK AO2 T01160057 PWINO
Observed
Apr-23 @ 05:35 UTC
Visibility
10 SM
Flight Rules
VFR
Cloud Levels
  • Clear skies
Temperature
12°C / 54°F
Dewpoint
C / 43°F
Humidity
67%
Altimeter
30.07" Hg
Pressure
1018.32 hPa
Previous

53 mins ago

KPOV 230515Z AUTO 00000KT 10SM CLR 11/06 A3007 RMK AO2 T01140057 PWINO
Observed
Apr-23 @ 05:15 UTC
Visibility
10 SM
Flight Rules
VFR
Cloud Levels
  • Clear skies
Temperature
11°C / 52°F
Dewpoint
C / 43°F
Humidity
72%
Altimeter
30.07" Hg
Pressure
1018.32 hPa